sensor_id;sensor_type;location;lat;lon;timestamp;P1;durP1;ratioP1;P2;durP2;ratioP2
11877;SDS011;5998;42.676;23.268;2023-05-10T00:00:26;6.40;;;5.80;;
11877;SDS011;5998;42.676;23.268;2023-05-10T00:02:53;5.47;;;4.97;;
11877;SDS011;5998;42.676;23.268;2023-05-10T00:05:20;6.30;;;5.70;;
11877;SDS011;5998;42.676;23.268;2023-05-10T00:07:46;7.80;;;5.70;;
11877;SDS011;5998;42.676;23.268;2023-05-10T00:10:12;5.53;;;5.03;;
11877;SDS011;5998;42.676;23.268;2023-05-10T00:12:40;6.20;;;5.60;;
11877;SDS011;5998;42.676;23.268;2023-05-10T00:15:07;5.70;;;5.20;;
11877;SDS011;5998;42.676;23.268;2023-05-10T00:17:34;6.20;;;5.60;;
11877;SDS011;5998;42.676;23.268;2023-05-10T00:20:00;6.17;;;5.63;;
11877;SDS011;5998;42.676;23.268;2023-05-10T00:22:27;5.73;;;5.23;;
11877;SDS011;5998;42.676;23.268;2023-05-10T00:24:53;6.17;;;5.57;;
11877;SDS011;5998;42.676;23.268;2023-05-10T00:27:20;5.83;;;5.33;;
11877;SDS011;5998;42.676;23.268;2023-05-10T00:29:48;6.03;;;5.43;;
11877;SDS011;5998;42.676;23.268;2023-05-10T00:32:14;5.50;;;5.00;;
11877;SDS011;5998;42.676;23.268;2023-05-10T00:34:41;5.67;;;5.10;;
11877;SDS011;5998;42.676;23.268;2023-05-10T00:37:07;5.63;;;5.13;;
11877;SDS011;5998;42.676;23.268;2023-05-10T00:39:34;5.57;;;5.07;;
11877;SDS011;5998;42.676;23.268;2023-05-10T00:42:00;5.93;;;5.43;;
11877;SDS011;5998;42.676;23.268;2023-05-10T00:44:26;6.07;;;5.50;;
11877;SDS011;5998;42.676;23.268;2023-05-10T00:46:55;5.60;;;5.20;;
11877;SDS011;5998;42.676;23.268;2023-05-10T00:49:21;5.50;;;4.90;;
11877;SDS011;5998;42.676;23.268;2023-05-10T00:51:48;6.57;;;6.07;;
11877;SDS011;5998;42.676;23.268;2023-05-10T00:54:14;6.70;;;6.10;;
11877;SDS011;5998;42.676;23.268;2023-05-10T00:56:41;6.47;;;5.87;;
11877;SDS011;5998;42.676;23.268;2023-05-10T00:59:09;7.00;;;6.40;;
11877;SDS011;5998;42.676;23.268;2023-05-10T01:01:36;6.10;;;5.60;;
11877;SDS011;5998;42.676;23.268;2023-05-10T01:04:04;6.60;;;6.00;;
11877;SDS011;5998;42.676;23.268;2023-05-10T01:06:30;6.27;;;5.77;;
11877;SDS011;5998;42.676;23.268;2023-05-10T01:08:57;6.20;;;5.70;;
11877;SDS011;5998;42.676;23.268;2023-05-10T01:11:23;6.20;;;5.53;;
11877;SDS011;5998;42.676;23.268;2023-05-10T01:13:52;6.60;;;5.87;;
11877;SDS011;5998;42.676;23.268;2023-05-10T01:16:20;7.33;;;6.63;;
11877;SDS011;5998;42.676;23.268;2023-05-10T01:18:46;5.43;;;5.03;;
11877;SDS011;5998;42.676;23.268;2023-05-10T01:21:17;6.70;;;6.10;;
11877;SDS011;5998;42.676;23.268;2023-05-10T01:23:51;7.90;;;7.10;;
11877;SDS011;5998;42.676;23.268;2023-05-10T01:26:27;6.97;;;6.40;;
11877;SDS011;5998;42.676;23.268;2023-05-10T01:32:01;7.27;;;6.67;;
11877;SDS011;5998;42.676;23.268;2023-05-10T01:34:34;7.00;;;6.40;;
11877;SDS011;5998;42.676;23.268;2023-05-10T01:37:02;6.90;;;5.27;;
11877;SDS011;5998;42.676;23.268;2023-05-10T01:39:32;6.90;;;6.37;;
11877;SDS011;5998;42.676;23.268;2023-05-10T01:42:00;6.63;;;6.07;;
11877;SDS011;5998;42.676;23.268;2023-05-10T01:44:29;7.00;;;6.40;;
11877;SDS011;5998;42.676;23.268;2023-05-10T01:46:58;5.83;;;5.43;;
11877;SDS011;5998;42.676;23.268;2023-05-10T01:49:31;5.97;;;5.47;;
11877;SDS011;5998;42.676;23.268;2023-05-10T01:51:59;5.20;;;4.80;;
11877;SDS011;5998;42.676;23.268;2023-05-10T01:54:26;6.00;;;5.40;;
11877;SDS011;5998;42.676;23.268;2023-05-10T01:56:59;6.63;;;5.10;;
11877;SDS011;5998;42.676;23.268;2023-05-10T01:59:28;5.13;;;4.70;;
11877;SDS011;5998;42.676;23.268;2023-05-10T02:01:55;4.30;;;4.00;;
11877;SDS011;5998;42.676;23.268;2023-05-10T02:04:23;5.37;;;4.97;;
11877;SDS011;5998;42.676;23.268;2023-05-10T02:06:52;5.10;;;4.70;;
11877;SDS011;5998;42.676;23.268;2023-05-10T02:09:19;5.50;;;5.00;;
11877;SDS011;5998;42.676;23.268;2023-05-10T02:11:47;5.77;;;5.10;;
11877;SDS011;5998;42.676;23.268;2023-05-10T02:14:14;4.17;;;3.87;;
11877;SDS011;5998;42.676;23.268;2023-05-10T02:16:41;4.93;;;4.43;;
11877;SDS011;5998;42.676;23.268;2023-05-10T02:19:09;3.90;;;3.60;;
11877;SDS011;5998;42.676;23.268;2023-05-10T02:21:36;4.97;;;4.57;;
11877;SDS011;5998;42.676;23.268;2023-05-10T02:24:05;4.87;;;4.40;;
11877;SDS011;5998;42.676;23.268;2023-05-10T02:26:32;4.63;;;4.23;;
11877;SDS011;5998;42.676;23.268;2023-05-10T02:29:00;5.47;;;4.43;;
11877;SDS011;5998;42.676;23.268;2023-05-10T02:31:28;4.97;;;4.23;;
11877;SDS011;5998;42.676;23.268;2023-05-10T02:33:55;4.80;;;4.30;;
11877;SDS011;5998;42.676;23.268;2023-05-10T02:36:23;4.57;;;4.13;;
11877;SDS011;5998;42.676;23.268;2023-05-10T02:38:50;5.40;;;4.13;;
11877;SDS011;5998;42.676;23.268;2023-05-10T02:41:19;4.73;;;4.07;;
11877;SDS011;5998;42.676;23.268;2023-05-10T02:43:46;4.70;;;4.27;;
11877;SDS011;5998;42.676;23.268;2023-05-10T02:46:13;4.73;;;4.33;;
11877;SDS011;5998;42.676;23.268;2023-05-10T02:48:39;4.93;;;4.37;;
11877;SDS011;5998;42.676;23.268;2023-05-10T02:51:07;4.83;;;4.43;;
11877;SDS011;5998;42.676;23.268;2023-05-10T02:53:34;6.37;;;4.37;;
11877;SDS011;5998;42.676;23.268;2023-05-10T02:56:04;4.43;;;4.07;;
11877;SDS011;5998;42.676;23.268;2023-05-10T02:58:33;6.33;;;4.80;;
11877;SDS011;5998;42.676;23.268;2023-05-10T03:00:59;5.00;;;4.30;;
11877;SDS011;5998;42.676;23.268;2023-05-10T03:03:26;7.97;;;4.57;;
11877;SDS011;5998;42.676;23.268;2023-05-10T03:05:52;5.53;;;4.73;;
11877;SDS011;5998;42.676;23.268;2023-05-10T03:08:20;5.27;;;4.43;;
11877;SDS011;5998;42.676;23.268;2023-05-10T03:10:50;4.07;;;3.70;;
11877;SDS011;5998;42.676;23.268;2023-05-10T03:13:21;6.60;;;4.60;;
11877;SDS011;5998;42.676;23.268;2023-05-10T03:15:59;5.40;;;4.90;;
11877;SDS011;5998;42.676;23.268;2023-05-10T03:18:28;4.47;;;4.07;;
11877;SDS011;5998;42.676;23.268;2023-05-10T03:20:55;5.37;;;4.87;;
11877;SDS011;5998;42.676;23.268;2023-05-10T03:23:26;5.50;;;5.03;;
11877;SDS011;5998;42.676;23.268;2023-05-10T03:25:53;5.27;;;4.47;;
11877;SDS011;5998;42.676;23.268;2023-05-10T03:28:20;5.60;;;4.90;;
11877;SDS011;5998;42.676;23.268;2023-05-10T03:30:47;4.83;;;4.43;;
11877;SDS011;5998;42.676;23.268;2023-05-10T03:33:15;6.67;;;4.87;;
11877;SDS011;5998;42.676;23.268;2023-05-10T03:35:41;5.30;;;4.80;;
11877;SDS011;5998;42.676;23.268;2023-05-10T03:38:10;5.83;;;4.57;;
11877;SDS011;5998;42.676;23.268;2023-05-10T03:40:37;5.70;;;5.10;;
11877;SDS011;5998;42.676;23.268;2023-05-10T03:43:03;5.37;;;4.70;;
11877;SDS011;5998;42.676;23.268;2023-05-10T03:45:30;5.17;;;4.77;;
11877;SDS011;5998;42.676;23.268;2023-05-10T03:47:57;5.10;;;4.43;;
11877;SDS011;5998;42.676;23.268;2023-05-10T03:50:25;6.07;;;4.30;;
11877;SDS011;5998;42.676;23.268;2023-05-10T03:52:52;5.17;;;4.67;;
11877;SDS011;5998;42.676;23.268;2023-05-10T03:55:18;5.30;;;4.90;;
11877;SDS011;5998;42.676;23.268;2023-05-10T03:57:45;4.57;;;4.13;;
11877;SDS011;5998;42.676;23.268;2023-05-10T04:00:11;4.77;;;4.03;;
11877;SDS011;5998;42.676;23.268;2023-05-10T04:02:40;5.77;;;4.60;;
11877;SDS011;5998;42.676;23.268;2023-05-10T04:05:07;5.07;;;4.53;;
11877;SDS011;5998;42.676;23.268;2023-05-10T04:07:35;6.90;;;4.60;;
11877;SDS011;5998;42.676;23.268;2023-05-10T04:10:01;4.70;;;4.30;;
11877;SDS011;5998;42.676;23.268;2023-05-10T04:12:27;6.67;;;4.17;;
11877;SDS011;5998;42.676;23.268;2023-05-10T04:14:54;4.43;;;4.00;;
11877;SDS011;5998;42.676;23.268;2023-05-10T04:17:20;5.20;;;4.70;;
11877;SDS011;5998;42.676;23.268;2023-05-10T04:19:47;5.13;;;3.90;;
11877;SDS011;5998;42.676;23.268;2023-05-10T04:22:13;4.03;;;3.73;;
11877;SDS011;5998;42.676;23.268;2023-05-10T04:24:41;6.80;;;4.93;;
11877;SDS011;5998;42.676;23.268;2023-05-10T04:27:07;4.77;;;4.27;;
11877;SDS011;5998;42.676;23.268;2023-05-10T04:29:34;4.53;;;4.13;;
11877;SDS011;5998;42.676;23.268;2023-05-10T04:32:01;5.90;;;4.60;;
11877;SDS011;5998;42.676;23.268;2023-05-10T04:34:28;5.23;;;4.30;;
11877;SDS011;5998;42.676;23.268;2023-05-10T04:36:55;5.77;;;3.80;;
11877;SDS011;5998;42.676;23.268;2023-05-10T04:39:21;4.90;;;4.33;;
11877;SDS011;5998;42.676;23.268;2023-05-10T04:41:49;5.07;;;4.60;;
11877;SDS011;5998;42.676;23.268;2023-05-10T04:44:16;4.70;;;4.27;;
11877;SDS011;5998;42.676;23.268;2023-05-10T04:46:42;5.03;;;4.37;;
11877;SDS011;5998;42.676;23.268;2023-05-10T04:49:09;4.93;;;4.30;;
11877;SDS011;5998;42.676;23.268;2023-05-10T04:51:35;5.90;;;4.40;;
11877;SDS011;5998;42.676;23.268;2023-05-10T04:54:01;6.07;;;4.80;;
11877;SDS011;5998;42.676;23.268;2023-05-10T04:56:28;4.93;;;4.40;;
11877;SDS011;5998;42.676;23.268;2023-05-10T04:58:56;4.67;;;4.27;;
11877;SDS011;5998;42.676;23.268;2023-05-10T05:01:22;6.03;;;4.53;;
11877;SDS011;5998;42.676;23.268;2023-05-10T05:03:49;5.40;;;4.90;;
11877;SDS011;5998;42.676;23.268;2023-05-10T05:06:17;4.20;;;2.80;;
11877;SDS011;5998;42.676;23.268;2023-05-10T05:08:45;5.37;;;4.33;;
11877;SDS011;5998;42.676;23.268;2023-05-10T05:11:14;5.30;;;4.80;;
11877;SDS011;5998;42.676;23.268;2023-05-10T05:13:40;5.30;;;4.80;;
11877;SDS011;5998;42.676;23.268;2023-05-10T05:16:08;7.13;;;4.73;;
11877;SDS011;5998;42.676;23.268;2023-05-10T05:18:35;8.87;;;5.40;;
11877;SDS011;5998;42.676;23.268;2023-05-10T05:21:01;5.43;;;4.93;;
11877;SDS011;5998;42.676;23.268;2023-05-10T05:23:28;6.23;;;5.20;;
11877;SDS011;5998;42.676;23.268;2023-05-10T05:25:55;5.10;;;4.53;;
11877;SDS011;5998;42.676;23.268;2023-05-10T05:28:21;5.63;;;5.03;;
11877;SDS011;5998;42.676;23.268;2023-05-10T05:30:48;7.73;;;5.40;;
11877;SDS011;5998;42.676;23.268;2023-05-10T05:33:15;7.10;;;5.57;;
11877;SDS011;5998;42.676;23.268;2023-05-10T05:35:42;5.73;;;4.80;;
11877;SDS011;5998;42.676;23.268;2023-05-10T05:38:12;6.63;;;6.03;;
11877;SDS011;5998;42.676;23.268;2023-05-10T05:40:39;6.50;;;5.80;;
11877;SDS011;5998;42.676;23.268;2023-05-10T05:43:05;6.33;;;5.67;;
11877;SDS011;5998;42.676;23.268;2023-05-10T05:45:31;6.40;;;5.80;;
11877;SDS011;5998;42.676;23.268;2023-05-10T05:47:58;6.73;;;6.13;;
11877;SDS011;5998;42.676;23.268;2023-05-10T05:50:26;7.40;;;6.07;;
11877;SDS011;5998;42.676;23.268;2023-05-10T05:52:52;6.57;;;5.87;;
11877;SDS011;5998;42.676;23.268;2023-05-10T05:55:19;6.30;;;5.70;;
11877;SDS011;5998;42.676;23.268;2023-05-10T05:57:46;8.13;;;6.00;;
11877;SDS011;5998;42.676;23.268;2023-05-10T06:00:13;6.13;;;5.63;;
11877;SDS011;5998;42.676;23.268;2023-05-10T06:02:40;6.80;;;6.13;;
11877;SDS011;5998;42.676;23.268;2023-05-10T06:05:07;6.23;;;5.63;;
11877;SDS011;5998;42.676;23.268;2023-05-10T06:07:35;7.17;;;6.43;;
11877;SDS011;5998;42.676;23.268;2023-05-10T06:10:01;7.40;;;6.60;;
11877;SDS011;5998;42.676;23.268;2023-05-10T06:12:28;11.80;;;7.10;;
11877;SDS011;5998;42.676;23.268;2023-05-10T06:14:54;7.23;;;6.50;;
11877;SDS011;5998;42.676;23.268;2023-05-10T06:17:21;11.70;;;7.57;;
11877;SDS011;5998;42.676;23.268;2023-05-10T06:19:47;9.87;;;7.00;;
11877;SDS011;5998;42.676;23.268;2023-05-10T06:22:14;8.67;;;7.77;;
11877;SDS011;5998;42.676;23.268;2023-05-10T06:24:42;14.27;;;7.77;;
11877;SDS011;5998;42.676;23.268;2023-05-10T06:27:08;15.37;;;7.90;;
11877;SDS011;5998;42.676;23.268;2023-05-10T06:29:35;9.20;;;7.63;;
11877;SDS011;5998;42.676;23.268;2023-05-10T06:32:01;8.43;;;7.27;;
11877;SDS011;5998;42.676;23.268;2023-05-10T06:34:28;16.40;;;7.73;;
11877;SDS011;5998;42.676;23.268;2023-05-10T06:36:55;9.67;;;7.97;;
11877;SDS011;5998;42.676;23.268;2023-05-10T06:39:21;9.47;;;7.73;;
11877;SDS011;5998;42.676;23.268;2023-05-10T06:41:49;7.83;;;7.10;;
11877;SDS011;5998;42.676;23.268;2023-05-10T06:44:15;9.17;;;7.80;;
11877;SDS011;5998;42.676;23.268;2023-05-10T06:46:42;11.23;;;7.17;;
11877;SDS011;5998;42.676;23.268;2023-05-10T06:49:08;9.67;;;7.13;;
11877;SDS011;5998;42.676;23.268;2023-05-10T06:51:35;9.00;;;5.83;;
11877;SDS011;5998;42.676;23.268;2023-05-10T06:54:01;16.13;;;7.90;;
11877;SDS011;5998;42.676;23.268;2023-05-10T06:56:28;7.40;;;6.60;;
11877;SDS011;5998;42.676;23.268;2023-05-10T06:58:56;8.27;;;6.70;;
11877;SDS011;5998;42.676;23.268;2023-05-10T07:01:22;8.43;;;7.53;;
11877;SDS011;5998;42.676;23.268;2023-05-10T07:03:49;7.73;;;6.40;;
11877;SDS011;5998;42.676;23.268;2023-05-10T07:06:15;8.57;;;7.07;;
11877;SDS011;5998;42.676;23.268;2023-05-10T07:08:42;7.53;;;6.73;;
11877;SDS011;5998;42.676;23.268;2023-05-10T07:11:08;9.60;;;7.60;;
11877;SDS011;5998;42.676;23.268;2023-05-10T07:13:35;10.03;;;7.67;;
11877;SDS011;5998;42.676;23.268;2023-05-10T07:16:06;9.13;;;7.43;;
11877;SDS011;5998;42.676;23.268;2023-05-10T07:18:33;8.30;;;7.40;;
11877;SDS011;5998;42.676;23.268;2023-05-10T07:20:59;9.57;;;7.13;;
11877;SDS011;5998;42.676;23.268;2023-05-10T07:23:26;8.37;;;6.60;;
11877;SDS011;5998;42.676;23.268;2023-05-10T07:25:52;6.90;;;6.20;;
11877;SDS011;5998;42.676;23.268;2023-05-10T07:28:18;9.77;;;8.10;;
11877;SDS011;5998;42.676;23.268;2023-05-10T07:30:45;8.03;;;7.23;;
11877;SDS011;5998;42.676;23.268;2023-05-10T07:33:13;9.03;;;7.23;;
11877;SDS011;5998;42.676;23.268;2023-05-10T07:35:40;8.97;;;8.13;;
11877;SDS011;5998;42.676;23.268;2023-05-10T07:38:07;7.73;;;7.03;;
11877;SDS011;5998;42.676;23.268;2023-05-10T07:40:33;11.00;;;8.07;;
11877;SDS011;5998;42.676;23.268;2023-05-10T07:43:00;7.73;;;6.90;;
11877;SDS011;5998;42.676;23.268;2023-05-10T07:45:27;9.23;;;7.40;;
11877;SDS011;5998;42.676;23.268;2023-05-10T07:47:53;7.57;;;6.80;;
11877;SDS011;5998;42.676;23.268;2023-05-10T07:50:21;8.07;;;7.20;;
11877;SDS011;5998;42.676;23.268;2023-05-10T07:52:48;11.00;;;8.63;;
11877;SDS011;5998;42.676;23.268;2023-05-10T07:55:14;8.77;;;7.87;;
11877;SDS011;5998;42.676;23.268;2023-05-10T07:57:41;8.57;;;7.60;;
11877;SDS011;5998;42.676;23.268;2023-05-10T08:00:08;8.70;;;7.80;;
11877;SDS011;5998;42.676;23.268;2023-05-10T08:02:35;9.00;;;7.57;;
11877;SDS011;5998;42.676;23.268;2023-05-10T08:05:01;17.83;;;8.23;;
11877;SDS011;5998;42.676;23.268;2023-05-10T08:07:31;11.30;;;7.90;;
11877;SDS011;5998;42.676;23.268;2023-05-10T08:09:58;12.17;;;8.10;;
11877;SDS011;5998;42.676;23.268;2023-05-10T08:12:25;8.00;;;7.20;;
11877;SDS011;5998;42.676;23.268;2023-05-10T08:14:51;10.73;;;8.10;;
11877;SDS011;5998;42.676;23.268;2023-05-10T08:17:18;13.83;;;7.10;;
11877;SDS011;5998;42.676;23.268;2023-05-10T08:19:44;9.27;;;7.90;;
11877;SDS011;5998;42.676;23.268;2023-05-10T08:22:10;13.13;;;8.20;;
11877;SDS011;5998;42.676;23.268;2023-05-10T08:24:38;14.93;;;8.07;;
11877;SDS011;5998;42.676;23.268;2023-05-10T08:27:07;9.53;;;8.27;;
11877;SDS011;5998;42.676;23.268;2023-05-10T08:29:33;9.67;;;8.67;;
11877;SDS011;5998;42.676;23.268;2023-05-10T08:32:00;11.87;;;6.43;;
11877;SDS011;5998;42.676;23.268;2023-05-10T08:34:27;10.27;;;7.80;;
11877;SDS011;5998;42.676;23.268;2023-05-10T08:36:53;8.13;;;7.20;;
11877;SDS011;5998;42.676;23.268;2023-05-10T08:39:20;8.70;;;7.63;;
11877;SDS011;5998;42.676;23.268;2023-05-10T08:41:47;14.07;;;7.97;;
11877;SDS011;5998;42.676;23.268;2023-05-10T08:44:15;9.63;;;7.87;;
11877;SDS011;5998;42.676;23.268;2023-05-10T08:46:43;9.27;;;7.40;;
11877;SDS011;5998;42.676;23.268;2023-05-10T08:49:12;8.23;;;7.43;;
11877;SDS011;5998;42.676;23.268;2023-05-10T08:51:40;9.13;;;7.23;;
11877;SDS011;5998;42.676;23.268;2023-05-10T08:54:06;9.10;;;7.30;;
11877;SDS011;5998;42.676;23.268;2023-05-10T08:56:33;12.13;;;7.90;;
11877;SDS011;5998;42.676;23.268;2023-05-10T08:59:01;7.90;;;7.10;;
11877;SDS011;5998;42.676;23.268;2023-05-10T09:01:28;9.07;;;7.70;;
11877;SDS011;5998;42.676;23.268;2023-05-10T09:03:55;8.13;;;7.33;;
11877;SDS011;5998;42.676;23.268;2023-05-10T09:06:21;7.43;;;6.80;;
11877;SDS011;5998;42.676;23.268;2023-05-10T09:08:48;9.20;;;8.13;;
11877;SDS011;5998;42.676;23.268;2023-05-10T09:11:15;7.50;;;6.73;;
11877;SDS011;5998;42.676;23.268;2023-05-10T09:13:42;8.73;;;7.90;;
11877;SDS011;5998;42.676;23.268;2023-05-10T09:16:10;7.37;;;6.67;;
11877;SDS011;5998;42.676;23.268;2023-05-10T09:18:37;6.43;;;5.83;;
11877;SDS011;5998;42.676;23.268;2023-05-10T09:21:04;8.20;;;6.87;;
11877;SDS011;5998;42.676;23.268;2023-05-10T09:23:30;7.50;;;6.70;;
11877;SDS011;5998;42.676;23.268;2023-05-10T09:26:03;11.47;;;7.60;;
11877;SDS011;5998;42.676;23.268;2023-05-10T09:28:31;10.07;;;8.17;;
11877;SDS011;5998;42.676;23.268;2023-05-10T09:30:57;7.67;;;6.90;;
11877;SDS011;5998;42.676;23.268;2023-05-10T09:33:25;7.67;;;6.97;;
11877;SDS011;5998;42.676;23.268;2023-05-10T09:35:52;8.73;;;7.83;;
11877;SDS011;5998;42.676;23.268;2023-05-10T09:38:19;7.90;;;7.20;;
11877;SDS011;5998;42.676;23.268;2023-05-10T09:40:50;8.07;;;7.27;;
11877;SDS011;5998;42.676;23.268;2023-05-10T09:43:19;8.30;;;7.50;;
11877;SDS011;5998;42.676;23.268;2023-05-10T09:45:46;8.57;;;6.73;;
11877;SDS011;5998;42.676;23.268;2023-05-10T09:48:14;9.07;;;8.17;;
11877;SDS011;5998;42.676;23.268;2023-05-10T09:50:42;7.87;;;7.03;;
11877;SDS011;5998;42.676;23.268;2023-05-10T09:53:08;9.17;;;7.40;;
11877;SDS011;5998;42.676;23.268;2023-05-10T09:55:38;7.73;;;6.57;;
11877;SDS011;5998;42.676;23.268;2023-05-10T09:58:05;7.73;;;6.93;;
11877;SDS011;5998;42.676;23.268;2023-05-10T10:00:35;9.57;;;6.73;;
11877;SDS011;5998;42.676;23.268;2023-05-10T10:03:02;8.13;;;6.27;;
11877;SDS011;5998;42.676;23.268;2023-05-10T10:05:29;6.60;;;5.17;;
11877;SDS011;5998;42.676;23.268;2023-05-10T10:07:58;7.47;;;6.77;;
11877;SDS011;5998;42.676;23.268;2023-05-10T10:10:24;10.83;;;7.03;;
11877;SDS011;5998;42.676;23.268;2023-05-10T10:12:51;10.30;;;6.77;;
11877;SDS011;5998;42.676;23.268;2023-05-10T10:15:17;8.23;;;6.57;;
11877;SDS011;5998;42.676;23.268;2023-05-10T10:17:44;7.63;;;6.93;;
11877;SDS011;5998;42.676;23.268;2023-05-10T10:20:11;7.27;;;6.60;;
11877;SDS011;5998;42.676;23.268;2023-05-10T10:22:38;7.43;;;6.50;;
11877;SDS011;5998;42.676;23.268;2023-05-10T10:25:07;9.17;;;7.10;;
11877;SDS011;5998;42.676;23.268;2023-05-10T10:27:37;7.57;;;6.73;;
11877;SDS011;5998;42.676;23.268;2023-05-10T10:30:10;7.40;;;6.70;;
11877;SDS011;5998;42.676;23.268;2023-05-10T10:32:44;9.13;;;6.70;;
11877;SDS011;5998;42.676;23.268;2023-05-10T10:35:14;8.50;;;6.27;;
11877;SDS011;5998;42.676;23.268;2023-05-10T10:37:42;8.67;;;6.27;;
11877;SDS011;5998;42.676;23.268;2023-05-10T10:40:26;8.90;;;6.90;;
11877;SDS011;5998;42.676;23.268;2023-05-10T10:42:53;7.03;;;6.37;;
11877;SDS011;5998;42.676;23.268;2023-05-10T10:45:20;8.20;;;6.03;;
11877;SDS011;5998;42.676;23.268;2023-05-10T10:47:47;6.37;;;5.77;;
11877;SDS011;5998;42.676;23.268;2023-05-10T10:50:14;8.20;;;6.57;;
11877;SDS011;5998;42.676;23.268;2023-05-10T10:52:41;6.07;;;5.47;;
11877;SDS011;5998;42.676;23.268;2023-05-10T10:55:09;9.97;;;6.43;;
11877;SDS011;5998;42.676;23.268;2023-05-10T10:57:44;7.23;;;6.53;;
11877;SDS011;5998;42.676;23.268;2023-05-10T11:00:22;12.53;;;7.30;;
11877;SDS011;5998;42.676;23.268;2023-05-10T11:02:49;7.73;;;6.47;;
11877;SDS011;5998;42.676;23.268;2023-05-10T11:08:07;6.30;;;5.63;;
11877;SDS011;5998;42.676;23.268;2023-05-10T11:10:34;6.40;;;5.80;;
11877;SDS011;5998;42.676;23.268;2023-05-10T11:13:03;6.20;;;5.60;;
11877;SDS011;5998;42.676;23.268;2023-05-10T11:15:30;6.07;;;5.40;;
11877;SDS011;5998;42.676;23.268;2023-05-10T11:17:57;6.67;;;5.90;;
11877;SDS011;5998;42.676;23.268;2023-05-10T11:20:26;7.53;;;5.30;;
11877;SDS011;5998;42.676;23.268;2023-05-10T11:22:58;6.80;;;6.03;;
11877;SDS011;5998;42.676;23.268;2023-05-10T11:25:40;7.03;;;6.27;;
11877;SDS011;5998;42.676;23.268;2023-05-10T11:28:08;6.37;;;5.77;;
11877;SDS011;5998;42.676;23.268;2023-05-10T11:30:34;6.33;;;5.73;;
11877;SDS011;5998;42.676;23.268;2023-05-10T11:33:01;7.03;;;5.73;;
11877;SDS011;5998;42.676;23.268;2023-05-10T11:35:28;9.50;;;6.47;;
11877;SDS011;5998;42.676;23.268;2023-05-10T11:37:55;8.07;;;6.33;;
11877;SDS011;5998;42.676;23.268;2023-05-10T11:40:21;6.90;;;6.20;;
11877;SDS011;5998;42.676;23.268;2023-05-10T11:42:49;6.40;;;5.80;;
11877;SDS011;5998;42.676;23.268;2023-05-10T11:45:17;6.30;;;5.70;;
11877;SDS011;5998;42.676;23.268;2023-05-10T11:47:43;5.53;;;5.03;;
11877;SDS011;5998;42.676;23.268;2023-05-10T11:50:10;8.53;;;5.50;;
11877;SDS011;5998;42.676;23.268;2023-05-10T11:52:37;7.03;;;5.73;;
11877;SDS011;5998;42.676;23.268;2023-05-10T11:55:04;6.90;;;5.97;;
11877;SDS011;5998;42.676;23.268;2023-05-10T11:57:32;6.67;;;5.83;;
11877;SDS011;5998;42.676;23.268;2023-05-10T11:59:58;7.30;;;6.60;;
11877;SDS011;5998;42.676;23.268;2023-05-10T12:02:26;6.87;;;5.80;;
11877;SDS011;5998;42.676;23.268;2023-05-10T12:04:53;6.80;;;6.20;;
11877;SDS011;5998;42.676;23.268;2023-05-10T12:07:21;8.43;;;6.30;;
11877;SDS011;5998;42.676;23.268;2023-05-10T12:10:02;7.60;;;5.63;;
11877;SDS011;5998;42.676;23.268;2023-05-10T12:12:34;7.60;;;6.80;;
11877;SDS011;5998;42.676;23.268;2023-05-10T12:15:01;7.63;;;7.00;;
11877;SDS011;5998;42.676;23.268;2023-05-10T12:17:30;7.83;;;7.13;;
11877;SDS011;5998;42.676;23.268;2023-05-10T12:19:58;6.10;;;5.47;;
11877;SDS011;5998;42.676;23.268;2023-05-10T12:22:25;8.13;;;7.10;;
11877;SDS011;5998;42.676;23.268;2023-05-10T12:24:52;7.27;;;6.33;;
11877;SDS011;5998;42.676;23.268;2023-05-10T12:27:18;7.07;;;6.37;;
11877;SDS011;5998;42.676;23.268;2023-05-10T12:29:45;8.33;;;7.03;;
11877;SDS011;5998;42.676;23.268;2023-05-10T12:32:12;7.73;;;6.97;;
11877;SDS011;5998;42.676;23.268;2023-05-10T12:34:40;8.57;;;6.50;;
11877;SDS011;5998;42.676;23.268;2023-05-10T12:37:06;8.10;;;7.33;;
11877;SDS011;5998;42.676;23.268;2023-05-10T12:39:39;7.90;;;7.20;;
11877;SDS011;5998;42.676;23.268;2023-05-10T12:42:07;8.93;;;6.80;;
11877;SDS011;5998;42.676;23.268;2023-05-10T12:44:33;9.23;;;6.97;;
11877;SDS011;5998;42.676;23.268;2023-05-10T12:47:00;12.23;;;8.07;;
11877;SDS011;5998;42.676;23.268;2023-05-10T12:49:26;12.43;;;7.97;;
11877;SDS011;5998;42.676;23.268;2023-05-10T12:51:54;10.93;;;7.57;;
11877;SDS011;5998;42.676;23.268;2023-05-10T12:54:20;8.00;;;7.10;;
11877;SDS011;5998;42.676;23.268;2023-05-10T12:56:47;8.27;;;6.70;;
11877;SDS011;5998;42.676;23.268;2023-05-10T12:59:13;8.97;;;7.57;;
11877;SDS011;5998;42.676;23.268;2023-05-10T13:01:40;6.67;;;6.00;;
11877;SDS011;5998;42.676;23.268;2023-05-10T13:04:06;7.53;;;6.73;;
11877;SDS011;5998;42.676;23.268;2023-05-10T13:06:32;9.10;;;8.13;;
11877;SDS011;5998;42.676;23.268;2023-05-10T13:09:01;10.77;;;7.30;;
11877;SDS011;5998;42.676;23.268;2023-05-10T13:11:28;7.90;;;7.20;;
11877;SDS011;5998;42.676;23.268;2023-05-10T13:13:54;8.80;;;7.20;;
11877;SDS011;5998;42.676;23.268;2023-05-10T13:16:21;8.20;;;7.40;;
11877;SDS011;5998;42.676;23.268;2023-05-10T13:18:47;8.03;;;7.23;;
11877;SDS011;5998;42.676;23.268;2023-05-10T13:21:14;8.37;;;7.57;;
11877;SDS011;5998;42.676;23.268;2023-05-10T13:23:41;8.00;;;7.20;;
11877;SDS011;5998;42.676;23.268;2023-05-10T13:26:09;11.57;;;7.63;;
11877;SDS011;5998;42.676;23.268;2023-05-10T13:28:35;8.90;;;7.47;;
11877;SDS011;5998;42.676;23.268;2023-05-10T13:31:03;8.50;;;7.00;;
11877;SDS011;5998;42.676;23.268;2023-05-10T13:33:30;8.13;;;7.33;;
11877;SDS011;5998;42.676;23.268;2023-05-10T13:35:56;8.40;;;7.53;;
11877;SDS011;5998;42.676;23.268;2023-05-10T13:38:23;9.77;;;7.27;;
11877;SDS011;5998;42.676;23.268;2023-05-10T13:40:49;8.97;;;7.73;;
11877;SDS011;5998;42.676;23.268;2023-05-10T13:43:19;8.73;;;7.60;;
11877;SDS011;5998;42.676;23.268;2023-05-10T13:45:45;8.47;;;7.40;;
11877;SDS011;5998;42.676;23.268;2023-05-10T13:48:12;10.33;;;7.43;;
11877;SDS011;5998;42.676;23.268;2023-05-10T13:50:38;10.27;;;7.33;;
11877;SDS011;5998;42.676;23.268;2023-05-10T13:53:05;7.73;;;6.93;;
11877;SDS011;5998;42.676;23.268;2023-05-10T13:58:35;9.07;;;8.07;;
11877;SDS011;5998;42.676;23.268;2023-05-10T14:01:02;7.80;;;7.00;;
11877;SDS011;5998;42.676;23.268;2023-05-10T14:03:29;9.93;;;7.23;;
11877;SDS011;5998;42.676;23.268;2023-05-10T14:05:56;9.10;;;7.17;;
11877;SDS011;5998;42.676;23.268;2023-05-10T14:08:22;8.57;;;7.67;;
11877;SDS011;5998;42.676;23.268;2023-05-10T14:10:49;9.60;;;6.97;;
11877;SDS011;5998;42.676;23.268;2023-05-10T14:13:15;8.70;;;7.30;;
11877;SDS011;5998;42.676;23.268;2023-05-10T14:15:43;7.57;;;6.87;;
11877;SDS011;5998;42.676;23.268;2023-05-10T14:18:10;8.33;;;7.30;;
11877;SDS011;5998;42.676;23.268;2023-05-10T14:20:36;9.70;;;7.43;;
11877;SDS011;5998;42.676;23.268;2023-05-10T14:23:02;9.27;;;7.40;;
11877;SDS011;5998;42.676;23.268;2023-05-10T14:25:29;9.93;;;7.20;;
11877;SDS011;5998;42.676;23.268;2023-05-10T14:27:55;9.57;;;7.13;;
11877;SDS011;5998;42.676;23.268;2023-05-10T14:30:22;8.17;;;6.77;;
11877;SDS011;5998;42.676;23.268;2023-05-10T14:32:50;8.80;;;7.27;;
11877;SDS011;5998;42.676;23.268;2023-05-10T14:35:18;7.97;;;6.97;;
11877;SDS011;5998;42.676;23.268;2023-05-10T14:37:45;7.97;;;7.23;;
11877;SDS011;5998;42.676;23.268;2023-05-10T14:40:12;10.87;;;7.03;;
11877;SDS011;5998;42.676;23.268;2023-05-10T14:42:39;10.27;;;7.13;;
11877;SDS011;5998;42.676;23.268;2023-05-10T14:45:05;8.17;;;6.60;;
11877;SDS011;5998;42.676;23.268;2023-05-10T14:47:32;8.10;;;6.60;;
11877;SDS011;5998;42.676;23.268;2023-05-10T14:50:00;9.23;;;7.77;;
11877;SDS011;5998;42.676;23.268;2023-05-10T14:55:29;8.20;;;7.40;;
11877;SDS011;5998;42.676;23.268;2023-05-10T14:57:56;7.80;;;7.00;;